createdAt,value
2022-10-11T00:01:00.920Z,996.95
2022-10-11T00:02:02.597Z,997.05
2022-10-11T00:03:04.303Z,996.98
2022-10-11T00:04:06.040Z,997.01
2022-10-11T00:05:07.807Z,997.04
2022-10-11T00:06:09.652Z,997.03
2022-10-11T00:07:11.242Z,997.06
2022-10-11T00:08:12.988Z,997.08
2022-10-11T00:09:14.713Z,997.11
2022-10-11T00:10:16.447Z,997.08
2022-10-11T00:11:18.184Z,997.14
2022-10-11T00:12:19.941Z,997.17
2022-10-11T00:13:21.660Z,997.15
2022-10-11T00:14:23.395Z,997.12
2022-10-11T00:15:25.135Z,997.16
2022-10-11T00:16:26.864Z,997.12
2022-10-11T00:17:28.605Z,997.11
2022-10-11T00:18:30.433Z,997.11
2022-10-11T00:19:32.070Z,997.07
2022-10-11T00:20:33.801Z,997.06
2022-10-11T00:21:35.542Z,997.04
2022-10-11T00:22:37.278Z,997.09
2022-10-11T00:23:39.023Z,997.08
2022-10-11T00:24:40.755Z,997.07
2022-10-11T00:25:42.477Z,997.08
2022-10-11T00:26:46.788Z,997.11
2022-10-11T00:27:45.955Z,997.11
2022-10-11T00:28:47.789Z,997.18
2022-10-11T00:29:49.461Z,997.19
2022-10-11T00:30:51.178Z,997.19
2022-10-11T00:31:52.924Z,997.2
2022-10-11T00:32:54.662Z,997.18
2022-10-11T00:33:56.381Z,997.17
2022-10-11T00:34:58.091Z,997.18
2022-10-11T00:35:59.828Z,997.19
2022-10-11T00:37:01.569Z,997.21
2022-10-11T00:38:03.297Z,997.19
2022-10-11T00:39:05.027Z,997.2
2022-10-11T00:40:06.760Z,997.2
2022-10-11T00:41:16.857Z,997.21
2022-10-11T00:42:10.238Z,997.21
2022-10-11T00:43:11.964Z,997.22
2022-10-11T00:44:13.695Z,997.27
2022-10-11T00:45:15.443Z,997.21
2022-10-11T00:46:17.171Z,997.25
2022-10-11T00:47:18.953Z,997.25
2022-10-11T00:48:20.635Z,997.23
2022-10-11T00:49:22.371Z,997.25
2022-10-11T00:50:24.133Z,997.26
2022-10-11T00:51:25.928Z,997.3
2022-10-11T00:52:27.567Z,997.28
2022-10-11T00:53:29.309Z,997.29
2022-10-11T00:54:31.062Z,997.29
2022-10-11T00:55:32.786Z,997.31
2022-10-11T00:56:34.522Z,997.26
2022-10-11T00:57:36.266Z,997.27
2022-10-11T00:58:37.998Z,997.3
2022-10-11T00:59:39.760Z,997.34
2022-10-11T01:00:41.459Z,997.33
2022-10-11T01:01:43.270Z,997.29
2022-10-11T01:02:44.941Z,997.33
2022-10-11T01:03:46.662Z,997.27
2022-10-11T01:04:54.369Z,997.31
2022-10-11T01:05:50.132Z,997.31
2022-10-11T01:06:51.869Z,997.33
2022-10-11T01:07:53.621Z,997.35
2022-10-11T01:08:55.347Z,997.36
2022-10-11T01:09:57.120Z,997.34
2022-10-11T01:10:58.811Z,997.37
2022-10-11T01:12:00.557Z,997.37
2022-10-11T01:13:02.270Z,997.39
2022-10-11T01:14:04.008Z,997.39
2022-10-11T01:15:05.750Z,997.38
2022-10-11T01:16:08.052Z,997.42
2022-10-11T01:17:09.218Z,997.45
2022-10-11T01:18:11.005Z,997.5
2022-10-11T01:19:12.702Z,997.47
2022-10-11T01:20:14.430Z,997.48
2022-10-11T01:21:16.163Z,997.47
2022-10-11T01:22:17.899Z,997.51
2022-10-11T01:23:19.661Z,997.47
2022-10-11T01:24:21.367Z,997.48
2022-10-11T01:25:23.103Z,997.49
2022-10-11T01:26:24.834Z,997.51
2022-10-11T01:27:26.567Z,997.54
2022-10-11T01:28:28.382Z,997.56
2022-10-11T01:29:30.059Z,997.53
2022-10-11T01:30:31.845Z,997.54
2022-10-11T01:31:33.500Z,997.48
2022-10-11T01:32:35.237Z,997.52
2022-10-11T01:33:36.968Z,997.49
2022-10-11T01:34:38.724Z,997.53
2022-10-11T01:35:40.444Z,997.52
2022-10-11T01:36:42.186Z,997.56
2022-10-11T01:37:43.911Z,997.57
2022-10-11T01:38:45.667Z,997.58
2022-10-11T01:39:47.407Z,997.58
2022-10-11T01:40:49.111Z,997.56
2022-10-11T01:41:50.857Z,997.53
2022-10-11T01:42:52.593Z,997.57
2022-10-11T01:43:54.319Z,997.57
2022-10-11T01:44:56.072Z,997.57
2022-10-11T01:45:57.839Z,997.58
2022-10-11T01:46:59.543Z,997.6
2022-10-11T01:48:01.268Z,997.65
2022-10-11T01:49:02.989Z,997.66
2022-10-11T01:50:04.721Z,997.6
2022-10-11T01:51:06.465Z,997.61
2022-10-11T01:52:08.193Z,997.64
2022-10-11T01:53:09.932Z,997.66
2022-10-11T01:54:11.661Z,997.67
2022-10-11T01:55:13.435Z,997.66
2022-10-11T01:56:15.135Z,997.71
2022-10-11T01:57:16.876Z,997.69
2022-10-11T01:58:18.615Z,997.65
2022-10-11T01:59:20.338Z,997.65
2022-10-11T02:00:22.113Z,997.69
2022-10-11T02:01:25.769Z,997.68
2022-10-11T02:02:25.558Z,997.7
2022-10-11T02:03:27.288Z,997.67
2022-10-11T02:04:29.061Z,997.62
2022-10-11T02:05:30.818Z,997.71
2022-10-11T02:06:32.488Z,997.7
2022-10-11T02:07:34.213Z,997.7
2022-10-11T02:08:35.948Z,997.71
2022-10-11T02:09:37.693Z,997.67
2022-10-11T02:10:39.431Z,997.68
2022-10-11T02:11:41.171Z,997.73
2022-10-11T02:12:42.889Z,997.73
2022-10-11T02:13:47.678Z,997.79
2022-10-11T02:14:46.380Z,997.76
2022-10-11T02:15:48.091Z,997.79
2022-10-11T02:16:49.833Z,997.72
2022-10-11T02:17:51.574Z,997.8
2022-10-11T02:18:53.323Z,997.86
2022-10-11T02:19:55.030Z,997.83
2022-10-11T02:20:56.785Z,997.86
2022-10-11T02:21:58.521Z,997.83
2022-10-11T02:23:00.251Z,997.84
2022-10-11T02:24:02.018Z,997.83
2022-10-11T02:25:03.729Z,997.84
2022-10-11T02:26:05.764Z,997.86
2022-10-11T02:27:07.189Z,997.82
2022-10-11T02:28:09.072Z,997.84
2022-10-11T02:29:10.650Z,997.86
2022-10-11T02:30:12.438Z,997.88
2022-10-11T02:31:14.136Z,997.94
2022-10-11T02:32:15.886Z,997.9
2022-10-11T02:33:17.648Z,997.9
2022-10-11T02:34:19.355Z,997.89
2022-10-11T02:35:21.098Z,997.88
2022-10-11T02:36:22.811Z,997.9
2022-10-11T02:37:24.570Z,997.87
2022-10-11T02:38:26.294Z,997.89
2022-10-11T02:39:29.192Z,997.93
2022-10-11T02:40:29.758Z,998.01
2022-10-11T02:41:31.493Z,998.02
2022-10-11T02:42:33.256Z,998.03
2022-10-11T02:43:34.956Z,998
2022-10-11T02:44:36.737Z,998.01
2022-10-11T02:45:38.464Z,998.02
2022-10-11T02:46:40.165Z,998
2022-10-11T02:47:41.898Z,998.03
2022-10-11T02:48:43.668Z,998.07
2022-10-11T02:49:45.395Z,998.07
2022-10-11T02:50:47.140Z,998.06
2022-10-11T02:51:48.864Z,998.09
2022-10-11T02:52:50.564Z,998.1
2022-10-11T02:53:52.301Z,998.1
2022-10-11T02:54:54.030Z,998.11
2022-10-11T02:55:55.767Z,998.14
2022-10-11T02:56:57.496Z,998.13
2022-10-11T02:57:59.240Z,998.18
2022-10-11T02:59:00.973Z,998.16
2022-10-11T03:00:02.719Z,998.18
2022-10-11T03:01:04.496Z,998.17
2022-10-11T03:02:06.299Z,998.21
2022-10-11T03:03:07.912Z,998.2
2022-10-11T03:04:09.649Z,998.21
2022-10-11T03:05:11.380Z,998.21
2022-10-11T03:06:13.110Z,998.29
2022-10-11T03:07:14.855Z,998.3
2022-10-11T03:08:16.589Z,998.32
2022-10-11T03:09:18.323Z,998.28
2022-10-11T03:10:20.045Z,998.31
2022-10-11T03:11:21.790Z,998.3
2022-10-11T03:12:30.803Z,998.26
2022-10-11T03:13:25.280Z,998.3
2022-10-11T03:14:26.989Z,998.3
2022-10-11T03:15:28.728Z,998.35
2022-10-11T03:16:30.453Z,998.3
2022-10-11T03:17:36.621Z,998.35
2022-10-11T03:18:33.939Z,998.3
2022-10-11T03:19:35.664Z,998.35
2022-10-11T03:20:37.435Z,998.34
2022-10-11T03:21:39.161Z,998.31
2022-10-11T03:22:40.870Z,998.36
2022-10-11T03:23:42.650Z,998.3
2022-10-11T03:24:44.341Z,998.36
2022-10-11T03:25:46.067Z,998.33
2022-10-11T03:26:47.816Z,998.38
2022-10-11T03:27:49.539Z,998.35
2022-10-11T03:28:51.366Z,998.34
2022-10-11T03:29:53.002Z,998.35
2022-10-11T03:30:54.752Z,998.36
2022-10-11T03:31:56.480Z,998.41
2022-10-11T03:32:58.234Z,998.36
2022-10-11T03:33:59.946Z,998.44
2022-10-11T03:35:01.678Z,998.39
2022-10-11T03:36:03.687Z,998.38
2022-10-11T03:37:05.148Z,998.43
2022-10-11T03:38:11.121Z,998.43
2022-10-11T03:39:08.628Z,998.4
2022-10-11T03:40:10.349Z,998.46
2022-10-11T03:41:12.085Z,998.46
2022-10-11T03:42:13.888Z,998.46
2022-10-11T03:43:15.553Z,998.47
2022-10-11T03:44:17.305Z,998.46
2022-10-11T03:45:19.038Z,998.46
2022-10-11T03:46:20.794Z,998.51
2022-10-11T03:47:22.498Z,998.54
2022-10-11T03:48:24.286Z,998.58
2022-10-11T03:49:25.976Z,998.55
2022-10-11T03:50:27.710Z,998.5
2022-10-11T03:51:29.442Z,998.51
2022-10-11T03:52:31.171Z,998.52
2022-10-11T03:53:32.899Z,998.54
2022-10-11T03:54:34.644Z,998.58
2022-10-11T03:55:36.377Z,998.58
2022-10-11T03:56:38.108Z,998.62
2022-10-11T03:57:39.836Z,998.58
2022-10-11T03:58:41.591Z,998.59
2022-10-11T03:59:43.321Z,998.61
2022-10-11T04:00:45.047Z,998.64
2022-10-11T04:01:46.859Z,998.68
2022-10-11T04:02:48.527Z,998.66
2022-10-11T04:03:50.275Z,998.7
2022-10-11T04:04:51.991Z,998.66
2022-10-11T04:05:53.744Z,998.67
2022-10-11T04:06:55.451Z,998.71
2022-10-11T04:07:57.181Z,998.67
2022-10-11T04:08:58.971Z,998.71
2022-10-11T04:10:00.689Z,998.69
2022-10-11T04:11:02.402Z,998.67
2022-10-11T04:12:04.129Z,998.69
2022-10-11T04:13:05.876Z,998.7
2022-10-11T04:14:07.615Z,998.71
2022-10-11T04:15:09.343Z,998.69
2022-10-11T04:16:11.079Z,998.74
2022-10-11T04:17:12.802Z,998.79
2022-10-11T04:18:14.551Z,998.74
2022-10-11T04:19:16.272Z,998.76
2022-10-11T04:20:18.018Z,998.76
2022-10-11T04:21:19.744Z,998.76
2022-10-11T04:22:21.478Z,998.78
2022-10-11T04:23:23.218Z,998.8
2022-10-11T04:24:24.967Z,998.81
2022-10-11T04:25:26.675Z,998.84
2022-10-11T04:26:28.412Z,998.86
2022-10-11T04:27:30.153Z,998.88
2022-10-11T04:28:31.980Z,998.88
2022-10-11T04:29:33.626Z,998.9
2022-10-11T04:30:35.354Z,998.93
2022-10-11T04:31:37.088Z,998.88
2022-10-11T04:32:38.818Z,998.92
2022-10-11T04:33:40.549Z,998.91
2022-10-11T04:34:57.750Z,998.9
2022-10-11T04:35:44.036Z,998.87
2022-10-11T04:36:49.758Z,998.9
2022-10-11T04:37:47.504Z,998.94
2022-10-11T04:38:49.223Z,998.91
2022-10-11T04:39:50.968Z,998.85
2022-10-11T04:40:52.693Z,998.92
2022-10-11T04:41:54.427Z,998.94
2022-10-11T04:42:56.165Z,998.92
2022-10-11T04:43:57.911Z,998.97
2022-10-11T04:44:59.643Z,998.96
2022-10-11T04:46:01.363Z,998.95
2022-10-11T04:47:03.116Z,998.96
2022-10-11T04:48:04.833Z,998.92
2022-10-11T04:49:06.568Z,998.92
2022-10-11T04:50:08.344Z,998.95
2022-10-11T04:51:10.041Z,998.95
2022-10-11T04:52:11.767Z,998.94
2022-10-11T04:53:13.509Z,998.98
2022-10-11T04:54:15.262Z,999.05
2022-10-11T04:55:16.998Z,999.03
2022-10-11T04:56:18.723Z,999.05
2022-10-11T04:57:20.456Z,999.1
2022-10-11T04:58:22.183Z,999.1
2022-10-11T04:59:23.922Z,999.11
2022-10-11T05:00:25.689Z,999.11
2022-10-11T05:01:27.381Z,999.14
2022-10-11T05:02:29.211Z,999.07
2022-10-11T05:03:30.868Z,999.15
2022-10-11T05:04:32.604Z,999.13
2022-10-11T05:05:34.317Z,999.12
2022-10-11T05:06:36.066Z,999.12
2022-10-11T05:07:37.801Z,999.14
2022-10-11T05:08:39.535Z,999.14
2022-10-11T05:09:41.268Z,999.16
2022-10-11T05:10:44.023Z,999.15
2022-10-11T05:11:44.744Z,999.16
2022-10-11T05:12:46.482Z,999.16
2022-10-11T05:13:48.247Z,999.21
2022-10-11T05:14:49.950Z,999.22
2022-10-11T05:15:51.723Z,999.27
2022-10-11T05:16:53.428Z,999.32
2022-10-11T05:17:55.197Z,999.27
2022-10-11T05:18:56.884Z,999.28
2022-10-11T05:19:58.653Z,999.26
2022-10-11T05:21:00.349Z,999.29
2022-10-11T05:22:02.086Z,999.32
2022-10-11T05:23:03.819Z,999.36
2022-10-11T05:24:05.562Z,999.38
2022-10-11T05:25:07.301Z,999.36
2022-10-11T05:26:09.300Z,999.36
2022-10-11T05:27:10.776Z,999.4
2022-10-11T05:28:12.615Z,999.4
2022-10-11T05:29:14.253Z,999.45
2022-10-11T05:30:15.988Z,999.48
2022-10-11T05:31:17.701Z,999.46
2022-10-11T05:32:19.430Z,999.48
2022-10-11T05:33:21.178Z,999.46
2022-10-11T05:34:22.906Z,999.45
2022-10-11T05:35:24.664Z,999.48
2022-10-11T05:36:26.411Z,999.5
2022-10-11T05:37:28.103Z,999.51
2022-10-11T05:38:29.882Z,999.52
2022-10-11T05:39:31.577Z,999.53
2022-10-11T05:40:33.307Z,999.5
2022-10-11T05:41:35.047Z,999.55
2022-10-11T05:42:36.783Z,999.55
2022-10-11T05:43:38.514Z,999.62
2022-10-11T05:44:40.251Z,999.65
2022-10-11T05:45:41.982Z,999.62
2022-10-11T05:46:43.728Z,999.65
2022-10-11T05:47:45.454Z,999.66
2022-10-11T05:48:47.186Z,999.73
2022-10-11T05:49:48.919Z,999.68
2022-10-11T05:50:50.652Z,999.69
2022-10-11T05:51:52.400Z,999.69
2022-10-11T05:52:54.132Z,999.7
2022-10-11T05:53:55.871Z,999.76
2022-10-11T05:54:57.609Z,999.74
2022-10-11T05:55:59.336Z,999.76
2022-10-11T05:57:01.078Z,999.7
2022-10-11T05:58:02.821Z,999.75
2022-10-11T05:59:04.552Z,999.77
2022-10-11T06:00:06.286Z,999.79
2022-10-11T06:01:08.055Z,999.75
2022-10-11T06:02:09.747Z,999.82
2022-10-11T06:03:11.498Z,999.8
2022-10-11T06:04:13.224Z,999.84
2022-10-11T06:05:14.965Z,999.87
2022-10-11T06:06:16.689Z,999.86
2022-10-11T06:07:18.428Z,999.92
2022-10-11T06:08:20.160Z,999.92
2022-10-11T06:09:21.894Z,999.98
2022-10-11T06:10:23.663Z,999.92
2022-10-11T06:11:25.383Z,999.93
2022-10-11T06:12:27.100Z,999.99
2022-10-11T06:13:28.831Z,999.96
2022-10-11T06:14:30.562Z,999.99
2022-10-11T06:15:32.307Z,1000
2022-10-11T06:16:34.047Z,999.94
2022-10-11T06:17:35.796Z,999.97
2022-10-11T06:18:37.507Z,1000.02
2022-10-11T06:19:39.261Z,999.95
2022-10-11T06:20:40.967Z,999.98
2022-10-11T06:21:42.707Z,999.99
2022-10-11T06:22:44.430Z,999.93
2022-10-11T06:23:46.172Z,999.95
2022-10-11T06:24:47.912Z,1000
2022-10-11T06:25:49.650Z,999.96
2022-10-11T06:26:51.396Z,999.94
2022-10-11T06:27:53.128Z,999.95
2022-10-11T06:28:54.971Z,999.97
2022-10-11T06:29:56.585Z,1000.01
2022-10-11T06:30:58.355Z,1000.02
2022-10-11T06:32:00.039Z,1000.06
2022-10-11T06:33:04.832Z,1000.06
2022-10-11T06:34:03.533Z,1000.06
2022-10-11T06:35:05.268Z,1000.14
2022-10-11T06:36:07.611Z,1000.1
2022-10-11T06:37:08.767Z,1000.16
2022-10-11T06:38:10.465Z,1000.12
2022-10-11T06:39:12.190Z,1000.13
2022-10-11T06:40:13.961Z,1000.14
2022-10-11T06:41:15.660Z,1000.2
2022-10-11T06:42:17.466Z,1000.26
2022-10-11T06:43:19.139Z,1000.28
2022-10-11T06:44:20.888Z,1000.3
2022-10-11T06:45:22.611Z,1000.22
2022-10-11T06:46:24.334Z,1000.35
2022-10-11T06:47:26.068Z,1000.4
2022-10-11T06:48:27.822Z,1000.38
2022-10-11T06:49:29.547Z,1000.39
2022-10-11T06:50:58.062Z,1000.41
2022-10-11T06:51:33.018Z,1000.42
2022-10-11T06:52:34.749Z,1000.37
2022-10-11T06:53:36.514Z,1000.41
2022-10-11T06:54:42.475Z,1000.46
2022-10-11T06:55:39.952Z,1000.46
2022-10-11T06:56:41.674Z,1000.44
2022-10-11T06:57:43.465Z,1000.45
2022-10-11T06:58:45.163Z,1000.48
2022-10-11T06:59:46.906Z,1000.46
2022-10-11T07:00:48.679Z,1000.43
2022-10-11T07:01:50.404Z,1000.44
2022-10-11T07:02:52.104Z,1000.45
2022-10-11T07:03:53.840Z,1000.43
2022-10-11T07:04:55.578Z,1000.47
2022-10-11T07:06:00.204Z,1000.47
2022-10-11T07:06:59.037Z,1000.47
2022-10-11T07:08:00.781Z,1000.41
2022-10-11T07:09:02.512Z,1000.51
2022-10-11T07:10:04.242Z,1000.55
2022-10-11T07:11:05.977Z,1000.53
2022-10-11T07:12:07.748Z,1000.53
2022-10-11T07:13:13.531Z,1000.57
2022-10-11T07:14:11.179Z,1000.58
2022-10-11T07:15:12.920Z,1000.6
2022-10-11T07:16:14.658Z,1000.62
2022-10-11T07:17:16.398Z,1000.57
2022-10-11T07:18:18.123Z,1000.61
2022-10-11T07:19:19.866Z,1000.63
2022-10-11T07:20:21.645Z,1000.66
2022-10-11T07:21:23.324Z,1000.62
2022-10-11T07:22:25.072Z,1000.66
2022-10-11T07:23:26.791Z,1000.63
2022-10-11T07:24:28.533Z,1000.66
2022-10-11T07:25:30.284Z,1000.68
2022-10-11T07:26:38.327Z,1000.65
2022-10-11T07:27:33.742Z,1000.7
2022-10-11T07:28:35.504Z,1000.7
2022-10-11T07:29:37.200Z,1000.73
2022-10-11T07:30:38.951Z,1000.77
2022-10-11T07:31:40.676Z,1000.71
2022-10-11T07:32:42.413Z,1000.74
2022-10-11T07:33:44.206Z,1000.74
2022-10-11T07:34:45.881Z,1000.7
2022-10-11T07:35:48.662Z,1000.78
2022-10-11T07:36:49.356Z,1000.79
2022-10-11T07:37:51.099Z,1000.75
2022-10-11T07:38:52.826Z,1000.77
2022-10-11T07:39:54.583Z,1000.74
2022-10-11T07:40:56.302Z,1000.8
2022-10-11T07:41:58.038Z,1000.73
2022-10-11T07:42:59.774Z,1000.76
2022-10-11T07:44:01.505Z,1000.77
2022-10-11T07:45:03.234Z,1000.76
2022-10-11T07:46:05.477Z,1000.67
2022-10-11T07:47:11.037Z,1000.75
2022-10-11T07:48:08.443Z,1000.69
2022-10-11T07:49:10.186Z,1000.72
2022-10-11T07:50:11.919Z,1000.64
2022-10-11T07:51:13.637Z,1000.7
2022-10-11T07:52:15.411Z,1000.73
2022-10-11T07:53:17.120Z,1000.67
2022-10-11T07:54:18.891Z,1000.73
2022-10-11T07:55:20.600Z,1000.7
2022-10-11T07:56:22.321Z,1000.68
2022-10-11T07:57:24.092Z,1000.69
2022-10-11T07:58:25.793Z,1000.68
2022-10-11T07:59:27.522Z,1000.71
2022-10-11T08:00:29.305Z,1000.7
2022-10-11T08:01:31.183Z,1000.7
2022-10-11T08:02:32.772Z,1000.66
2022-10-11T08:03:34.474Z,1000.72
2022-10-11T08:04:36.209Z,1000.71
2022-10-11T08:05:37.932Z,1000.71
2022-10-11T08:06:39.675Z,1000.74
2022-10-11T08:07:41.406Z,1000.73
2022-10-11T08:08:43.143Z,1000.83
2022-10-11T08:09:44.861Z,1000.78
2022-10-11T08:10:46.626Z,1000.74
2022-10-11T08:11:48.375Z,1000.8
2022-10-11T08:12:50.082Z,1000.77
2022-10-11T08:13:51.823Z,1000.79
2022-10-11T08:14:53.545Z,1000.76
2022-10-11T08:15:55.348Z,1000.78
2022-10-11T08:16:57.032Z,1000.77
2022-10-11T08:17:58.759Z,1000.78
2022-10-11T08:19:00.487Z,1000.76
2022-10-11T08:20:02.228Z,1000.78
2022-10-11T08:21:04.003Z,1000.74
2022-10-11T08:22:05.704Z,1000.76
2022-10-11T08:23:07.432Z,1000.74
2022-10-11T08:24:09.173Z,1000.79
2022-10-11T08:25:10.909Z,1000.79
2022-10-11T08:26:12.663Z,1000.81
2022-10-11T08:27:14.373Z,1000.8
2022-10-11T08:28:16.153Z,1000.77
2022-10-11T08:29:17.883Z,1000.86
2022-10-11T08:30:19.630Z,1000.85
2022-10-11T08:31:21.332Z,1000.82
2022-10-11T08:32:23.045Z,1000.84
2022-10-11T08:33:24.784Z,1000.83
2022-10-11T08:34:26.508Z,1000.79
2022-10-11T08:35:28.286Z,1000.82
2022-10-11T08:36:30.038Z,1000.79
2022-10-11T08:37:31.724Z,1000.79
2022-10-11T08:38:33.461Z,1000.8
2022-10-11T08:39:35.256Z,1000.83
2022-10-11T08:40:36.943Z,1000.73
2022-10-11T08:41:38.661Z,1000.79
2022-10-11T08:42:40.397Z,1000.71
2022-10-11T08:43:42.137Z,1000.75
2022-10-11T08:45:09.580Z,1000.74
2022-10-11T08:45:45.610Z,1000.74
2022-10-11T08:46:47.346Z,1000.72
2022-10-11T08:47:49.078Z,1000.73
2022-10-11T08:48:50.804Z,1000.73
2022-10-11T08:49:52.537Z,1000.72
2022-10-11T08:50:54.284Z,1000.76
2022-10-11T08:51:56.012Z,1000.79
2022-10-11T08:52:57.759Z,1000.75
2022-10-11T08:54:03.423Z,1000.75
2022-10-11T08:55:01.236Z,1000.77
2022-10-11T08:56:03.354Z,1000.81
2022-10-11T08:57:04.698Z,1000.79
2022-10-11T08:58:06.462Z,1000.8
2022-10-11T08:59:08.193Z,1000.81
2022-10-11T09:00:09.899Z,1000.81
2022-10-11T09:01:11.731Z,1000.8
2022-10-11T09:02:13.370Z,1000.86
2022-10-11T09:03:15.099Z,1000.81
2022-10-11T09:04:16.839Z,1000.82
2022-10-11T09:05:18.563Z,1000.84
2022-10-11T09:06:20.298Z,1000.85
2022-10-11T09:07:22.051Z,1000.85
2022-10-11T09:08:23.776Z,1000.85
2022-10-11T09:09:25.498Z,1000.83
2022-10-11T09:10:27.260Z,1000.82
2022-10-11T09:11:28.983Z,1000.84
2022-10-11T09:12:32.952Z,1000.83
2022-10-11T09:13:32.440Z,1000.85
2022-10-11T09:14:34.181Z,1000.83
2022-10-11T09:15:35.934Z,1000.87
2022-10-11T09:16:37.635Z,1000.8
2022-10-11T09:17:39.430Z,1000.85
2022-10-11T09:18:41.120Z,1000.88
2022-10-11T09:19:42.851Z,1000.82
2022-10-11T09:20:44.590Z,1000.84
2022-10-11T09:21:46.324Z,1000.84
2022-10-11T09:22:48.058Z,1000.91
2022-10-11T09:23:49.789Z,1000.85
2022-10-11T09:24:51.516Z,1000.85
2022-10-11T09:25:53.257Z,1000.82
2022-10-11T09:26:54.995Z,1000.86
2022-10-11T09:28:02.899Z,1000.84
2022-10-11T09:29:01.136Z,1000.88
2022-10-11T09:30:00.214Z,1000.86
2022-10-11T09:31:01.952Z,1000.8
2022-10-11T09:32:03.678Z,1000.85
2022-10-11T09:33:05.417Z,1000.81
2022-10-11T09:34:07.142Z,1000.84
2022-10-11T09:35:08.934Z,1000.81
2022-10-11T09:36:10.611Z,1000.79
2022-10-11T09:37:12.351Z,1000.81
2022-10-11T09:38:14.085Z,1000.77
2022-10-11T09:39:15.819Z,1000.81
2022-10-11T09:40:17.556Z,1000.81
2022-10-11T09:41:19.315Z,1000.76
2022-10-11T09:42:21.023Z,1000.78
2022-10-11T09:43:22.776Z,1000.81
2022-10-11T09:44:24.491Z,1000.78
2022-10-11T09:45:26.238Z,1000.78
2022-10-11T09:46:27.966Z,1000.78
2022-10-11T09:47:29.735Z,1000.78
2022-10-11T09:48:31.436Z,1000.79
2022-10-11T09:49:33.165Z,1000.71
2022-10-11T09:50:34.921Z,1000.75
2022-10-11T09:51:36.652Z,1000.74
2022-10-11T09:52:38.361Z,1000.72
2022-10-11T09:53:40.139Z,1000.79
2022-10-11T09:54:41.846Z,1000.74
2022-10-11T09:55:43.588Z,1000.77
2022-10-11T09:56:45.321Z,1000.8
2022-10-11T09:57:47.039Z,1000.76
2022-10-11T09:58:48.778Z,1000.79
2022-10-11T09:59:50.734Z,1000.75
2022-10-11T10:00:52.251Z,1000.77
2022-10-11T10:01:54.049Z,1000.78
2022-10-11T10:02:55.735Z,1000.77
2022-10-11T10:03:57.514Z,1000.74
2022-10-11T10:04:59.190Z,1000.8
2022-10-11T10:06:00.962Z,1000.82
2022-10-11T10:07:02.658Z,1000.81
2022-10-11T10:08:05.126Z,1000.82
2022-10-11T10:09:06.217Z,1000.78
2022-10-11T10:10:07.863Z,1000.78
2022-10-11T10:11:09.645Z,1000.76
2022-10-11T10:12:11.336Z,1000.69
2022-10-11T10:13:13.081Z,1000.74
2022-10-11T10:14:14.808Z,1000.71
2022-10-11T10:15:16.587Z,1000.7
2022-10-11T10:16:18.270Z,1000.67
2022-10-11T10:17:20.016Z,1000.66
2022-10-11T10:18:21.766Z,1000.62
2022-10-11T10:19:23.485Z,1000.67
2022-10-11T10:20:25.253Z,1000.65
2022-10-11T10:21:26.968Z,1000.6
2022-10-11T10:22:28.722Z,1000.64
2022-10-11T10:23:30.439Z,1000.64
2022-10-11T10:24:32.151Z,1000.63
2022-10-11T10:25:33.899Z,1000.6
2022-10-11T10:26:35.610Z,1000.64
2022-10-11T10:27:37.361Z,1000.64
2022-10-11T10:28:39.158Z,1000.65
2022-10-11T10:29:40.837Z,1000.62
2022-10-11T10:30:42.576Z,1000.62
2022-10-11T10:32:09.312Z,1000.63
2022-10-11T10:32:48.526Z,1000.59
2022-10-11T10:33:47.807Z,1000.62
2022-10-11T10:34:49.577Z,1000.62
2022-10-11T10:35:51.235Z,1000.57
2022-10-11T10:36:52.972Z,1000.57
2022-10-11T10:37:54.725Z,1000.59
2022-10-11T10:38:56.479Z,1000.55
2022-10-11T10:39:58.182Z,1000.55
2022-10-11T10:40:59.975Z,1000.54
2022-10-11T10:42:01.691Z,1000.54
2022-10-11T10:43:03.395Z,1000.51
2022-10-11T10:44:05.122Z,1000.5
2022-10-11T10:45:11.905Z,1000.58
2022-10-11T10:46:08.929Z,1000.54
2022-10-11T10:47:10.335Z,1000.51
2022-10-11T10:48:12.109Z,1000.5
2022-10-11T10:49:52.443Z,1000.53
2022-10-11T10:50:15.612Z,1000.52
2022-10-11T10:51:17.287Z,1000.51
2022-10-11T10:52:19.002Z,1000.55
2022-10-11T10:53:20.744Z,1000.58
2022-10-11T10:54:22.495Z,1000.51
2022-10-11T10:55:24.453Z,1000.57
2022-10-11T10:56:25.981Z,1000.55
2022-10-11T10:57:27.688Z,1000.62
2022-10-11T10:58:29.415Z,1000.61
2022-10-11T10:59:31.147Z,1000.6
2022-10-11T11:00:32.924Z,1000.57
2022-10-11T11:01:34.726Z,1000.6
2022-10-11T11:02:40.923Z,1000.61
2022-10-11T11:03:38.108Z,1000.57
2022-10-11T11:04:39.876Z,1000.55
2022-10-11T11:05:41.590Z,1000.57
2022-10-11T11:06:43.302Z,1000.54
2022-10-11T11:07:45.060Z,1000.55
2022-10-11T11:08:46.782Z,1000.6
2022-10-11T11:09:48.509Z,1000.57
2022-10-11T11:10:50.253Z,1000.55
2022-10-11T11:11:51.972Z,1000.55
2022-10-11T11:12:53.724Z,1000.53
2022-10-11T11:13:55.456Z,1000.52
2022-10-11T11:14:57.195Z,1000.51
2022-10-11T11:15:58.912Z,1000.49
2022-10-11T11:17:00.655Z,1000.45
2022-10-11T11:18:02.396Z,1000.49
2022-10-11T11:19:04.404Z,1000.49
2022-10-11T11:20:05.905Z,1000.45
2022-10-11T11:21:07.593Z,1000.46
2022-10-11T11:22:09.359Z,1000.43
2022-10-11T11:23:11.099Z,1000.39
2022-10-11T11:24:12.804Z,1000.41
2022-10-11T11:25:14.533Z,1000.41
2022-10-11T11:26:16.283Z,1000.34
2022-10-11T11:27:18.020Z,1000.4
2022-10-11T11:28:19.816Z,1000.4
2022-10-11T11:29:21.471Z,1000.44
2022-10-11T11:30:23.232Z,1000.42
2022-10-11T11:31:26.219Z,1000.39
2022-10-11T11:32:26.720Z,1000.41
2022-10-11T11:33:28.466Z,1000.44
2022-10-11T11:34:30.194Z,1000.36
2022-10-11T11:35:31.935Z,1000.42
2022-10-11T11:36:33.626Z,1000.42
2022-10-11T11:37:35.363Z,1000.38
2022-10-11T11:38:37.099Z,1000.41
2022-10-11T11:39:38.829Z,1000.42
2022-10-11T11:40:40.590Z,1000.44
2022-10-11T11:41:42.308Z,1000.4
2022-10-11T11:42:44.028Z,1000.4
2022-10-11T11:43:45.797Z,1000.43
2022-10-11T11:44:47.509Z,1000.35
2022-10-11T11:45:49.317Z,1000.34
2022-10-11T11:46:50.990Z,1000.34
2022-10-11T11:47:52.713Z,1000.3
2022-10-11T11:48:54.451Z,1000.29
2022-10-11T11:49:56.184Z,1000.31
2022-10-11T11:50:58.128Z,1000.31
2022-10-11T11:51:59.649Z,1000.33
2022-10-11T11:53:01.382Z,1000.33
2022-10-11T11:54:03.109Z,1000.28
2022-10-11T11:55:04.848Z,1000.3
2022-10-11T11:56:06.584Z,1000.26
2022-10-11T11:57:08.358Z,1000.31
2022-10-11T11:58:10.056Z,1000.29
2022-10-11T11:59:11.791Z,1000.3
2022-10-11T12:00:13.534Z,1000.24
2022-10-11T12:01:15.266Z,1000.22
2022-10-11T12:02:17.126Z,1000.22
2022-10-11T12:03:18.743Z,1000.23
2022-10-11T12:04:20.476Z,1000.25
2022-10-11T12:05:22.217Z,1000.21
2022-10-11T12:06:24.048Z,1000.21
2022-10-11T12:07:25.708Z,1000.14
2022-10-11T12:08:27.404Z,1000.2
2022-10-11T12:09:29.135Z,1000.19
2022-10-11T12:10:30.885Z,1000.17
2022-10-11T12:11:35.432Z,1000.19
2022-10-11T12:12:34.494Z,1000.17
2022-10-11T12:13:36.107Z,1000.17
2022-10-11T12:14:37.822Z,1000.16
2022-10-11T12:15:39.548Z,1000.14
2022-10-11T12:16:41.309Z,1000.12
2022-10-11T12:17:43.030Z,1000.1
2022-10-11T12:18:44.765Z,1000.11
2022-10-11T12:19:46.503Z,1000.1
2022-10-11T12:20:48.232Z,1000.08
2022-10-11T12:21:49.978Z,1000.04
2022-10-11T12:22:51.731Z,1000.05
2022-10-11T12:23:53.438Z,1000.06
2022-10-11T12:24:55.227Z,1000.05
2022-10-11T12:25:56.954Z,1000.03
2022-10-11T12:26:58.654Z,1000.03
2022-10-11T12:28:00.391Z,1000.03
2022-10-11T12:29:02.123Z,1000.01
2022-10-11T12:30:03.870Z,1000.01
2022-10-11T12:31:06.063Z,1000.03
2022-10-11T12:32:07.322Z,1000.02
2022-10-11T12:33:09.072Z,1000.02
2022-10-11T12:34:10.796Z,1000.01
2022-10-11T12:35:12.552Z,999.93
2022-10-11T12:36:14.729Z,999.99
2022-10-11T12:37:15.999Z,999.94
2022-10-11T12:38:17.767Z,999.96
2022-10-11T12:39:19.481Z,999.98
2022-10-11T12:40:21.196Z,999.96
2022-10-11T12:41:22.922Z,999.96
2022-10-11T12:42:24.661Z,999.94